X  Luk Metar data        LYNI Nis Airport
Temperatur
70°F Temperatur
68°F Duggpunkt
94% Fugtighed



Vind
0 MPT
0 KM/T
0 M/S
0 KNOB



Stille
N
Nuværende forhold

Mostly Sunny Mest solrig
Tryk 1012 (hPa) - 29.89 (inHg)
Sigt 6 (mil) - 10 (km)
Lufthavn
Lufthavnskode LYNI

Lokation: Nis Airport
Afstand: 14 (mi)

Metar:
METAR LYNI 220330Z 00000KT CAVOK 21/20 Q1013 NOSIG

Tid: 22-06-2024 05:30 CEST